sensor_id;sensor_type;location;lat;lon;timestamp;P1;durP1;ratioP1;P2;durP2;ratioP2
6394;SDS011;3230;42.588;23.358;2022-09-12T00:00:26;4.63;;;3.13;;
6394;SDS011;3230;42.588;23.358;2022-09-12T00:02:53;3.47;;;3.17;;
6394;SDS011;3230;42.588;23.358;2022-09-12T00:05:20;3.63;;;3.10;;
6394;SDS011;3230;42.588;23.358;2022-09-12T00:07:46;4.70;;;3.57;;
6394;SDS011;3230;42.588;23.358;2022-09-12T00:10:12;3.83;;;3.10;;
6394;SDS011;3230;42.588;23.358;2022-09-12T00:12:38;3.60;;;3.23;;
6394;SDS011;3230;42.588;23.358;2022-09-12T00:15:04;6.67;;;3.53;;
6394;SDS011;3230;42.588;23.358;2022-09-12T00:17:31;4.80;;;3.50;;
6394;SDS011;3230;42.588;23.358;2022-09-12T00:19:58;5.23;;;3.67;;
6394;SDS011;3230;42.588;23.358;2022-09-12T00:22:24;4.30;;;3.47;;
6394;SDS011;3230;42.588;23.358;2022-09-12T00:24:49;3.60;;;3.00;;
6394;SDS011;3230;42.588;23.358;2022-09-12T00:27:15;3.97;;;3.33;;
6394;SDS011;3230;42.588;23.358;2022-09-12T00:29:40;3.40;;;2.37;;
6394;SDS011;3230;42.588;23.358;2022-09-12T00:32:05;2.97;;;2.67;;
6394;SDS011;3230;42.588;23.358;2022-09-12T00:34:31;3.10;;;1.80;;
6394;SDS011;3230;42.588;23.358;2022-09-12T00:36:56;2.60;;;2.03;;
6394;SDS011;3230;42.588;23.358;2022-09-12T00:39:22;3.50;;;2.10;;
6394;SDS011;3230;42.588;23.358;2022-09-12T00:41:47;2.57;;;2.20;;
6394;SDS011;3230;42.588;23.358;2022-09-12T00:46:48;3.10;;;2.30;;
6394;SDS011;3230;42.588;23.358;2022-09-12T00:54:35;4.50;;;2.73;;
6394;SDS011;3230;42.588;23.358;2022-09-12T00:57:06;4.03;;;2.90;;
6394;SDS011;3230;42.588;23.358;2022-09-12T00:59:39;3.43;;;2.63;;
6394;SDS011;3230;42.588;23.358;2022-09-12T01:02:11;3.23;;;2.50;;
6394;SDS011;3230;42.588;23.358;2022-09-12T01:04:37;3.47;;;2.73;;
6394;SDS011;3230;42.588;23.358;2022-09-12T01:07:05;4.90;;;2.50;;
6394;SDS011;3230;42.588;23.358;2022-09-12T01:09:32;3.07;;;2.30;;
6394;SDS011;3230;42.588;23.358;2022-09-12T01:11:58;3.60;;;2.60;;
6394;SDS011;3230;42.588;23.358;2022-09-12T01:14:25;4.30;;;2.90;;
6394;SDS011;3230;42.588;23.358;2022-09-12T01:16:52;3.70;;;3.20;;
6394;SDS011;3230;42.588;23.358;2022-09-12T01:28:12;3.80;;;2.97;;
6394;SDS011;3230;42.588;23.358;2022-09-12T01:39:04;3.50;;;2.33;;
6394;SDS011;3230;42.588;23.358;2022-09-12T01:41:48;4.10;;;2.57;;
6394;SDS011;3230;42.588;23.358;2022-09-12T01:44:22;5.83;;;2.23;;
6394;SDS011;3230;42.588;23.358;2022-09-12T01:49:43;3.27;;;2.10;;
6394;SDS011;3230;42.588;23.358;2022-09-12T01:52:18;4.10;;;2.17;;
6394;SDS011;3230;42.588;23.358;2022-09-12T01:54:46;3.90;;;1.80;;
6394;SDS011;3230;42.588;23.358;2022-09-12T01:57:19;11.57;;;1.77;;
6394;SDS011;3230;42.588;23.358;2022-09-12T01:59:50;4.70;;;1.70;;
6394;SDS011;3230;42.588;23.358;2022-09-12T02:02:24;2.30;;;1.73;;
6394;SDS011;3230;42.588;23.358;2022-09-12T02:05:15;2.00;;;1.60;;
6394;SDS011;3230;42.588;23.358;2022-09-12T02:07:52;2.27;;;1.50;;
6394;SDS011;3230;42.588;23.358;2022-09-12T02:10:28;3.03;;;1.33;;
6394;SDS011;3230;42.588;23.358;2022-09-12T02:13:10;3.00;;;1.37;;
6394;SDS011;3230;42.588;23.358;2022-09-12T02:15:39;2.07;;;1.60;;
6394;SDS011;3230;42.588;23.358;2022-09-12T02:18:11;3.13;;;1.10;;
6394;SDS011;3230;42.588;23.358;2022-09-12T02:20:40;1.80;;;1.30;;
6394;SDS011;3230;42.588;23.358;2022-09-12T02:23:08;1.67;;;1.40;;
6394;SDS011;3230;42.588;23.358;2022-09-12T02:25:39;1.67;;;1.47;;
6394;SDS011;3230;42.588;23.358;2022-09-12T02:28:09;3.03;;;1.27;;
6394;SDS011;3230;42.588;23.358;2022-09-12T02:30:41;2.13;;;1.37;;
6394;SDS011;3230;42.588;23.358;2022-09-12T02:33:19;2.10;;;1.50;;
6394;SDS011;3230;42.588;23.358;2022-09-12T02:38:32;1.40;;;1.13;;
6394;SDS011;3230;42.588;23.358;2022-09-12T02:41:05;1.60;;;1.40;;
6394;SDS011;3230;42.588;23.358;2022-09-12T02:43:31;2.40;;;1.30;;
6394;SDS011;3230;42.588;23.358;2022-09-12T02:45:57;1.67;;;1.10;;
6394;SDS011;3230;42.588;23.358;2022-09-12T02:48:24;1.60;;;1.30;;
6394;SDS011;3230;42.588;23.358;2022-09-12T02:50:53;1.67;;;1.30;;
6394;SDS011;3230;42.588;23.358;2022-09-12T02:53:19;2.10;;;1.37;;
6394;SDS011;3230;42.588;23.358;2022-09-12T02:55:45;2.80;;;1.20;;
6394;SDS011;3230;42.588;23.358;2022-09-12T02:58:13;1.70;;;1.20;;
6394;SDS011;3230;42.588;23.358;2022-09-12T03:00:50;5.00;;;1.17;;
6394;SDS011;3230;42.588;23.358;2022-09-12T03:09:10;1.47;;;1.20;;
6394;SDS011;3230;42.588;23.358;2022-09-12T03:17:26;2.90;;;1.20;;
6394;SDS011;3230;42.588;23.358;2022-09-12T03:22:52;1.90;;;1.60;;
6394;SDS011;3230;42.588;23.358;2022-09-12T03:25:23;1.63;;;1.47;;
6394;SDS011;3230;42.588;23.358;2022-09-12T03:28:05;2.47;;;1.70;;
6394;SDS011;3230;42.588;23.358;2022-09-12T03:30:42;3.07;;;2.00;;
6394;SDS011;3230;42.588;23.358;2022-09-12T03:33:10;3.83;;;1.57;;
6394;SDS011;3230;42.588;23.358;2022-09-12T03:35:37;3.27;;;1.87;;
6394;SDS011;3230;42.588;23.358;2022-09-12T03:38:03;2.70;;;2.07;;
6394;SDS011;3230;42.588;23.358;2022-09-12T03:40:29;2.57;;;2.20;;
6394;SDS011;3230;42.588;23.358;2022-09-12T03:42:54;2.80;;;2.30;;
6394;SDS011;3230;42.588;23.358;2022-09-12T03:45:19;2.67;;;2.40;;
6394;SDS011;3230;42.588;23.358;2022-09-12T03:47:45;2.50;;;2.17;;
6394;SDS011;3230;42.588;23.358;2022-09-12T03:50:10;8.00;;;2.77;;
6394;SDS011;3230;42.588;23.358;2022-09-12T03:52:36;3.70;;;1.90;;
6394;SDS011;3230;42.588;23.358;2022-09-12T03:55:01;2.87;;;2.10;;
6394;SDS011;3230;42.588;23.358;2022-09-12T03:57:27;2.90;;;2.03;;
6394;SDS011;3230;42.588;23.358;2022-09-12T03:59:52;2.93;;;2.27;;
6394;SDS011;3230;42.588;23.358;2022-09-12T04:02:18;5.00;;;2.07;;
6394;SDS011;3230;42.588;23.358;2022-09-12T04:04:43;4.00;;;1.83;;
6394;SDS011;3230;42.588;23.358;2022-09-12T04:07:12;3.50;;;1.70;;
6394;SDS011;3230;42.588;23.358;2022-09-12T04:09:38;2.13;;;1.73;;
6394;SDS011;3230;42.588;23.358;2022-09-12T04:12:04;2.77;;;2.10;;
6394;SDS011;3230;42.588;23.358;2022-09-12T04:14:30;2.67;;;1.80;;
6394;SDS011;3230;42.588;23.358;2022-09-12T04:16:55;2.23;;;2.03;;
6394;SDS011;3230;42.588;23.358;2022-09-12T04:19:20;3.53;;;2.30;;
6394;SDS011;3230;42.588;23.358;2022-09-12T04:21:47;2.63;;;2.13;;
6394;SDS011;3230;42.588;23.358;2022-09-12T04:24:12;3.30;;;2.33;;
6394;SDS011;3230;42.588;23.358;2022-09-12T04:26:38;2.73;;;2.10;;
6394;SDS011;3230;42.588;23.358;2022-09-12T04:29:03;3.70;;;2.33;;
6394;SDS011;3230;42.588;23.358;2022-09-12T04:31:29;4.47;;;3.07;;
6394;SDS011;3230;42.588;23.358;2022-09-12T04:33:55;4.67;;;3.13;;
6394;SDS011;3230;42.588;23.358;2022-09-12T04:36:22;10.73;;;3.87;;
6394;SDS011;3230;42.588;23.358;2022-09-12T04:38:48;8.13;;;3.40;;
6394;SDS011;3230;42.588;23.358;2022-09-12T04:41:24;4.80;;;3.07;;
6394;SDS011;3230;42.588;23.358;2022-09-12T04:43:56;7.23;;;4.10;;
6394;SDS011;3230;42.588;23.358;2022-09-12T04:46:25;6.07;;;4.00;;
6394;SDS011;3230;42.588;23.358;2022-09-12T04:48:51;6.70;;;4.00;;
6394;SDS011;3230;42.588;23.358;2022-09-12T04:51:18;4.70;;;4.10;;
6394;SDS011;3230;42.588;23.358;2022-09-12T04:53:51;4.87;;;4.37;;
6394;SDS011;3230;42.588;23.358;2022-09-12T04:56:17;3.60;;;3.30;;
6394;SDS011;3230;42.588;23.358;2022-09-12T04:58:44;10.20;;;4.03;;
6394;SDS011;3230;42.588;23.358;2022-09-12T05:01:11;4.50;;;4.07;;
6394;SDS011;3230;42.588;23.358;2022-09-12T05:03:38;4.27;;;3.77;;
6394;SDS011;3230;42.588;23.358;2022-09-12T05:06:07;4.40;;;3.80;;
6394;SDS011;3230;42.588;23.358;2022-09-12T05:08:34;7.23;;;3.20;;
6394;SDS011;3230;42.588;23.358;2022-09-12T05:11:03;5.63;;;3.87;;
6394;SDS011;3230;42.588;23.358;2022-09-12T05:13:31;4.80;;;3.57;;
6394;SDS011;3230;42.588;23.358;2022-09-12T05:15:57;4.97;;;3.57;;
6394;SDS011;3230;42.588;23.358;2022-09-12T05:18:24;4.10;;;3.13;;
6394;SDS011;3230;42.588;23.358;2022-09-12T05:20:50;4.93;;;3.30;;
6394;SDS011;3230;42.588;23.358;2022-09-12T05:23:17;4.50;;;3.40;;
6394;SDS011;3230;42.588;23.358;2022-09-12T05:25:52;4.50;;;2.93;;
6394;SDS011;3230;42.588;23.358;2022-09-12T05:28:20;3.17;;;2.87;;
6394;SDS011;3230;42.588;23.358;2022-09-12T05:30:46;3.40;;;2.87;;
6394;SDS011;3230;42.588;23.358;2022-09-12T05:33:13;3.10;;;2.70;;
6394;SDS011;3230;42.588;23.358;2022-09-12T05:35:39;4.50;;;3.20;;
6394;SDS011;3230;42.588;23.358;2022-09-12T05:38:05;3.43;;;3.13;;
6394;SDS011;3230;42.588;23.358;2022-09-12T05:40:32;3.07;;;2.70;;
6394;SDS011;3230;42.588;23.358;2022-09-12T05:42:58;3.10;;;2.80;;
6394;SDS011;3230;42.588;23.358;2022-09-12T05:45:24;6.20;;;2.50;;
6394;SDS011;3230;42.588;23.358;2022-09-12T05:47:51;3.30;;;3.00;;
6394;SDS011;3230;42.588;23.358;2022-09-12T05:50:18;3.83;;;3.03;;
6394;SDS011;3230;42.588;23.358;2022-09-12T05:52:44;3.43;;;3.13;;
6394;SDS011;3230;42.588;23.358;2022-09-12T05:55:10;3.50;;;3.20;;
6394;SDS011;3230;42.588;23.358;2022-09-12T05:57:35;3.40;;;3.10;;
6394;SDS011;3230;42.588;23.358;2022-09-12T06:00:01;3.10;;;2.80;;
6394;SDS011;3230;42.588;23.358;2022-09-12T06:02:28;3.60;;;3.30;;
6394;SDS011;3230;42.588;23.358;2022-09-12T06:04:53;4.10;;;3.20;;
6394;SDS011;3230;42.588;23.358;2022-09-12T06:07:18;4.30;;;2.60;;
6394;SDS011;3230;42.588;23.358;2022-09-12T06:09:44;3.10;;;2.80;;
6394;SDS011;3230;42.588;23.358;2022-09-12T06:12:09;2.97;;;2.67;;
6394;SDS011;3230;42.588;23.358;2022-09-12T06:14:35;2.60;;;2.40;;
6394;SDS011;3230;42.588;23.358;2022-09-12T06:17:00;5.83;;;3.20;;
6394;SDS011;3230;42.588;23.358;2022-09-12T06:19:26;3.10;;;2.80;;
6394;SDS011;3230;42.588;23.358;2022-09-12T06:21:52;2.93;;;2.73;;
6394;SDS011;3230;42.588;23.358;2022-09-12T06:24:18;3.27;;;2.97;;
6394;SDS011;3230;42.588;23.358;2022-09-12T06:26:45;3.40;;;3.10;;
6394;SDS011;3230;42.588;23.358;2022-09-12T06:29:16;3.10;;;2.80;;
6394;SDS011;3230;42.588;23.358;2022-09-12T06:31:43;3.20;;;2.90;;
6394;SDS011;3230;42.588;23.358;2022-09-12T06:34:10;4.33;;;2.43;;
6394;SDS011;3230;42.588;23.358;2022-09-12T06:36:41;3.50;;;2.67;;
6394;SDS011;3230;42.588;23.358;2022-09-12T06:39:09;3.83;;;3.27;;
6394;SDS011;3230;42.588;23.358;2022-09-12T06:41:40;5.33;;;3.10;;
6394;SDS011;3230;42.588;23.358;2022-09-12T06:44:05;3.00;;;2.70;;
6394;SDS011;3230;42.588;23.358;2022-09-12T06:46:31;3.60;;;3.00;;
6394;SDS011;3230;42.588;23.358;2022-09-12T06:48:57;3.50;;;3.00;;
6394;SDS011;3230;42.588;23.358;2022-09-12T06:51:25;3.33;;;3.03;;
6394;SDS011;3230;42.588;23.358;2022-09-12T06:53:53;4.83;;;2.47;;
6394;SDS011;3230;42.588;23.358;2022-09-12T06:56:21;2.97;;;2.67;;
6394;SDS011;3230;42.588;23.358;2022-09-12T06:58:49;3.97;;;2.50;;
6394;SDS011;3230;42.588;23.358;2022-09-12T07:01:33;2.70;;;2.40;;
6394;SDS011;3230;42.588;23.358;2022-09-12T07:04:00;2.83;;;2.57;;
6394;SDS011;3230;42.588;23.358;2022-09-12T07:06:27;5.77;;;2.70;;
6394;SDS011;3230;42.588;23.358;2022-09-12T07:08:58;4.20;;;2.67;;
6394;SDS011;3230;42.588;23.358;2022-09-12T07:11:26;2.70;;;2.50;;
6394;SDS011;3230;42.588;23.358;2022-09-12T07:13:54;2.60;;;2.40;;
6394;SDS011;3230;42.588;23.358;2022-09-12T07:16:20;2.70;;;2.40;;
6394;SDS011;3230;42.588;23.358;2022-09-12T07:18:53;3.90;;;2.73;;
6394;SDS011;3230;42.588;23.358;2022-09-12T07:21:20;2.97;;;2.67;;
6394;SDS011;3230;42.588;23.358;2022-09-12T07:23:45;3.20;;;2.63;;
6394;SDS011;3230;42.588;23.358;2022-09-12T07:26:11;2.63;;;2.43;;
6394;SDS011;3230;42.588;23.358;2022-09-12T07:28:38;5.27;;;2.80;;
6394;SDS011;3230;42.588;23.358;2022-09-12T07:31:05;3.50;;;2.67;;
6394;SDS011;3230;42.588;23.358;2022-09-12T07:33:31;5.73;;;2.70;;
6394;SDS011;3230;42.588;23.358;2022-09-12T07:36:03;3.10;;;2.70;;
6394;SDS011;3230;42.588;23.358;2022-09-12T07:38:30;3.27;;;2.90;;
6394;SDS011;3230;42.588;23.358;2022-09-12T07:40:56;3.43;;;3.00;;
6394;SDS011;3230;42.588;23.358;2022-09-12T07:43:22;3.37;;;2.67;;
6394;SDS011;3230;42.588;23.358;2022-09-12T07:45:53;3.17;;;2.87;;
6394;SDS011;3230;42.588;23.358;2022-09-12T07:48:19;3.43;;;2.80;;
6394;SDS011;3230;42.588;23.358;2022-09-12T07:50:44;3.70;;;2.80;;
6394;SDS011;3230;42.588;23.358;2022-09-12T07:53:10;3.20;;;2.90;;
6394;SDS011;3230;42.588;23.358;2022-09-12T07:55:35;2.73;;;2.53;;
6394;SDS011;3230;42.588;23.358;2022-09-12T07:58:01;3.33;;;3.03;;
6394;SDS011;3230;42.588;23.358;2022-09-12T08:00:27;4.20;;;3.00;;
6394;SDS011;3230;42.588;23.358;2022-09-12T08:02:59;3.20;;;2.90;;
6394;SDS011;3230;42.588;23.358;2022-09-12T08:05:26;2.93;;;2.63;;
6394;SDS011;3230;42.588;23.358;2022-09-12T08:07:52;3.40;;;2.70;;
6394;SDS011;3230;42.588;23.358;2022-09-12T08:10:17;3.00;;;2.70;;
6394;SDS011;3230;42.588;23.358;2022-09-12T08:12:43;3.83;;;2.83;;
6394;SDS011;3230;42.588;23.358;2022-09-12T08:15:08;4.67;;;2.43;;
6394;SDS011;3230;42.588;23.358;2022-09-12T08:17:34;2.60;;;2.20;;
6394;SDS011;3230;42.588;23.358;2022-09-12T08:19:59;2.50;;;2.30;;
6394;SDS011;3230;42.588;23.358;2022-09-12T08:22:25;2.70;;;2.50;;
6394;SDS011;3230;42.588;23.358;2022-09-12T08:24:50;2.90;;;2.03;;
6394;SDS011;3230;42.588;23.358;2022-09-12T08:27:16;2.70;;;2.37;;
6394;SDS011;3230;42.588;23.358;2022-09-12T08:29:41;2.70;;;1.90;;
6394;SDS011;3230;42.588;23.358;2022-09-12T08:32:06;2.43;;;2.10;;
6394;SDS011;3230;42.588;23.358;2022-09-12T08:34:32;3.70;;;2.03;;
6394;SDS011;3230;42.588;23.358;2022-09-12T08:36:58;2.47;;;2.20;;
6394;SDS011;3230;42.588;23.358;2022-09-12T08:39:23;2.10;;;1.80;;
6394;SDS011;3230;42.588;23.358;2022-09-12T08:42:00;1.83;;;1.60;;
6394;SDS011;3230;42.588;23.358;2022-09-12T08:47:28;3.17;;;2.40;;
6394;SDS011;3230;42.588;23.358;2022-09-12T08:55:36;4.10;;;1.87;;
6394;SDS011;3230;42.588;23.358;2022-09-12T09:04:02;3.40;;;2.50;;
6394;SDS011;3230;42.588;23.358;2022-09-12T09:17:51;4.27;;;3.07;;
6394;SDS011;3230;42.588;23.358;2022-09-12T09:20:28;4.03;;;2.70;;
6394;SDS011;3230;42.588;23.358;2022-09-12T09:23:02;3.87;;;3.00;;
6394;SDS011;3230;42.588;23.358;2022-09-12T09:25:39;4.23;;;3.13;;
6394;SDS011;3230;42.588;23.358;2022-09-12T09:28:14;4.10;;;3.30;;
6394;SDS011;3230;42.588;23.358;2022-09-12T09:30:43;4.67;;;3.30;;
6394;SDS011;3230;42.588;23.358;2022-09-12T09:33:10;4.13;;;3.20;;
6394;SDS011;3230;42.588;23.358;2022-09-12T09:35:51;3.50;;;2.93;;
6394;SDS011;3230;42.588;23.358;2022-09-12T09:38:29;5.67;;;3.00;;
6394;SDS011;3230;42.588;23.358;2022-09-12T09:43:31;3.57;;;2.87;;
6394;SDS011;3230;42.588;23.358;2022-09-12T09:45:57;4.50;;;3.27;;
6394;SDS011;3230;42.588;23.358;2022-09-12T09:50:49;4.20;;;2.77;;
6394;SDS011;3230;42.588;23.358;2022-09-12T09:54:02;5.00;;;2.87;;
6394;SDS011;3230;42.588;23.358;2022-09-12T09:59:11;3.93;;;3.00;;
6394;SDS011;3230;42.588;23.358;2022-09-12T10:01:43;3.90;;;3.00;;
6394;SDS011;3230;42.588;23.358;2022-09-12T10:04:26;7.70;;;3.93;;
6394;SDS011;3230;42.588;23.358;2022-09-12T10:06:57;4.57;;;3.70;;
6394;SDS011;3230;42.588;23.358;2022-09-12T10:09:26;4.10;;;3.17;;
6394;SDS011;3230;42.588;23.358;2022-09-12T10:11:57;7.33;;;2.87;;
6394;SDS011;3230;42.588;23.358;2022-09-12T10:14:28;3.63;;;3.10;;
6394;SDS011;3230;42.588;23.358;2022-09-12T10:16:56;4.63;;;3.50;;
6394;SDS011;3230;42.588;23.358;2022-09-12T10:19:23;3.80;;;3.27;;
6394;SDS011;3230;42.588;23.358;2022-09-12T10:21:58;3.90;;;3.50;;
6394;SDS011;3230;42.588;23.358;2022-09-12T10:24:26;4.97;;;3.67;;
6394;SDS011;3230;42.588;23.358;2022-09-12T10:29:48;5.40;;;3.37;;
6394;SDS011;3230;42.588;23.358;2022-09-12T10:32:23;4.80;;;3.60;;
6394;SDS011;3230;42.588;23.358;2022-09-12T10:35:00;5.73;;;3.40;;
6394;SDS011;3230;42.588;23.358;2022-09-12T10:37:29;4.17;;;3.13;;
6394;SDS011;3230;42.588;23.358;2022-09-12T10:39:57;3.23;;;2.80;;
6394;SDS011;3230;42.588;23.358;2022-09-12T10:45:28;5.03;;;3.33;;
6394;SDS011;3230;42.588;23.358;2022-09-12T10:47:56;4.93;;;3.07;;
6394;SDS011;3230;42.588;23.358;2022-09-12T10:50:28;3.87;;;2.90;;
6394;SDS011;3230;42.588;23.358;2022-09-12T10:53:20;4.60;;;3.60;;
6394;SDS011;3230;42.588;23.358;2022-09-12T10:56:09;4.90;;;3.47;;
6394;SDS011;3230;42.588;23.358;2022-09-12T11:01:11;3.50;;;3.10;;
6394;SDS011;3230;42.588;23.358;2022-09-12T11:04:01;3.13;;;2.80;;
6394;SDS011;3230;42.588;23.358;2022-09-12T11:06:32;4.57;;;3.40;;
6394;SDS011;3230;42.588;23.358;2022-09-12T11:30:13;4.10;;;3.60;;
6394;SDS011;3230;42.588;23.358;2022-09-12T11:42:44;6.10;;;4.53;;
6394;SDS011;3230;42.588;23.358;2022-09-12T11:45:17;6.93;;;4.80;;
6394;SDS011;3230;42.588;23.358;2022-09-12T11:47:49;5.10;;;3.90;;
6394;SDS011;3230;42.588;23.358;2022-09-12T11:50:25;5.27;;;4.30;;
6394;SDS011;3230;42.588;23.358;2022-09-12T11:53:14;6.77;;;4.80;;
6394;SDS011;3230;42.588;23.358;2022-09-12T11:55:46;7.03;;;5.00;;
6394;SDS011;3230;42.588;23.358;2022-09-12T11:58:21;5.63;;;4.40;;
6394;SDS011;3230;42.588;23.358;2022-09-12T12:00:51;6.70;;;5.10;;
6394;SDS011;3230;42.588;23.358;2022-09-12T12:03:27;6.00;;;4.90;;
6394;SDS011;3230;42.588;23.358;2022-09-12T12:08:31;6.13;;;4.97;;
6394;SDS011;3230;42.588;23.358;2022-09-12T12:11:04;6.57;;;4.63;;
6394;SDS011;3230;42.588;23.358;2022-09-12T12:13:32;6.63;;;4.90;;
6394;SDS011;3230;42.588;23.358;2022-09-12T12:16:32;6.70;;;5.17;;
6394;SDS011;3230;42.588;23.358;2022-09-12T12:19:34;5.70;;;4.53;;
6394;SDS011;3230;42.588;23.358;2022-09-12T12:22:06;6.00;;;4.90;;
6394;SDS011;3230;42.588;23.358;2022-09-12T12:33:06;6.77;;;4.00;;
6394;SDS011;3230;42.588;23.358;2022-09-12T12:38:39;5.60;;;4.20;;
6394;SDS011;3230;42.588;23.358;2022-09-12T12:43:48;4.83;;;3.97;;
6394;SDS011;3230;42.588;23.358;2022-09-12T12:46:15;5.40;;;4.27;;
6394;SDS011;3230;42.588;23.358;2022-09-12T12:48:46;4.83;;;3.80;;
6394;SDS011;3230;42.588;23.358;2022-09-12T12:51:15;4.53;;;3.67;;
6394;SDS011;3230;42.588;23.358;2022-09-12T12:53:41;5.73;;;4.00;;
6394;SDS011;3230;42.588;23.358;2022-09-12T12:56:22;5.83;;;4.33;;
6394;SDS011;3230;42.588;23.358;2022-09-12T12:59:02;4.10;;;3.67;;
6394;SDS011;3230;42.588;23.358;2022-09-12T13:01:36;3.97;;;3.30;;
6394;SDS011;3230;42.588;23.358;2022-09-12T13:04:12;3.93;;;2.70;;
6394;SDS011;3230;42.588;23.358;2022-09-12T13:06:42;3.37;;;2.80;;
6394;SDS011;3230;42.588;23.358;2022-09-12T13:11:45;3.57;;;2.90;;
6394;SDS011;3230;42.588;23.358;2022-09-12T13:17:22;14.70;;;3.73;;
6394;SDS011;3230;42.588;23.358;2022-09-12T13:19:50;4.37;;;3.10;;
6394;SDS011;3230;42.588;23.358;2022-09-12T13:22:20;4.13;;;3.60;;
6394;SDS011;3230;42.588;23.358;2022-09-12T13:24:48;4.60;;;3.90;;
6394;SDS011;3230;42.588;23.358;2022-09-12T13:27:20;4.30;;;3.90;;
6394;SDS011;3230;42.588;23.358;2022-09-12T13:29:48;4.20;;;3.77;;
6394;SDS011;3230;42.588;23.358;2022-09-12T13:32:14;8.67;;;4.20;;
6394;SDS011;3230;42.588;23.358;2022-09-12T13:34:56;4.10;;;3.47;;
6394;SDS011;3230;42.588;23.358;2022-09-12T13:37:43;4.63;;;3.80;;
6394;SDS011;3230;42.588;23.358;2022-09-12T13:43:07;4.03;;;3.63;;
6394;SDS011;3230;42.588;23.358;2022-09-12T13:45:38;4.47;;;3.80;;
6394;SDS011;3230;42.588;23.358;2022-09-12T13:48:05;5.20;;;3.60;;
6394;SDS011;3230;42.588;23.358;2022-09-12T13:50:44;4.07;;;3.60;;
6394;SDS011;3230;42.588;23.358;2022-09-12T13:53:16;8.77;;;5.17;;
6394;SDS011;3230;42.588;23.358;2022-09-12T13:55:47;5.67;;;3.80;;
6394;SDS011;3230;42.588;23.358;2022-09-12T14:00:46;5.13;;;4.37;;
6394;SDS011;3230;42.588;23.358;2022-09-12T14:03:26;4.23;;;3.47;;
6394;SDS011;3230;42.588;23.358;2022-09-12T14:06:13;3.67;;;3.20;;
6394;SDS011;3230;42.588;23.358;2022-09-12T14:08:40;4.10;;;3.70;;
6394;SDS011;3230;42.588;23.358;2022-09-12T14:11:08;5.77;;;4.10;;
6394;SDS011;3230;42.588;23.358;2022-09-12T14:13:35;3.67;;;3.27;;
6394;SDS011;3230;42.588;23.358;2022-09-12T14:16:02;4.23;;;3.83;;
6394;SDS011;3230;42.588;23.358;2022-09-12T14:18:32;7.30;;;4.10;;
6394;SDS011;3230;42.588;23.358;2022-09-12T14:21:06;4.90;;;4.40;;
6394;SDS011;3230;42.588;23.358;2022-09-12T14:23:54;6.00;;;4.60;;
6394;SDS011;3230;42.588;23.358;2022-09-12T14:26:21;5.33;;;4.60;;
6394;SDS011;3230;42.588;23.358;2022-09-12T14:28:48;4.63;;;4.13;;
6394;SDS011;3230;42.588;23.358;2022-09-12T14:31:29;6.13;;;4.40;;
6394;SDS011;3230;42.588;23.358;2022-09-12T14:34:07;7.30;;;5.17;;
6394;SDS011;3230;42.588;23.358;2022-09-12T14:36:54;5.10;;;4.50;;
6394;SDS011;3230;42.588;23.358;2022-09-12T14:39:33;10.93;;;5.27;;
6394;SDS011;3230;42.588;23.358;2022-09-12T14:42:11;6.10;;;4.50;;
6394;SDS011;3230;42.588;23.358;2022-09-12T14:44:41;6.10;;;4.40;;
6394;SDS011;3230;42.588;23.358;2022-09-12T14:47:23;5.40;;;4.60;;
6394;SDS011;3230;42.588;23.358;2022-09-12T14:49:51;6.40;;;4.67;;
6394;SDS011;3230;42.588;23.358;2022-09-12T14:57:43;5.27;;;4.60;;
6394;SDS011;3230;42.588;23.358;2022-09-12T15:02:37;5.27;;;4.77;;
6394;SDS011;3230;42.588;23.358;2022-09-12T15:07:39;5.43;;;4.33;;
6394;SDS011;3230;42.588;23.358;2022-09-12T15:12:38;6.20;;;4.67;;
6394;SDS011;3230;42.588;23.358;2022-09-12T15:15:13;6.80;;;4.80;;
6394;SDS011;3230;42.588;23.358;2022-09-12T15:17:43;5.87;;;4.73;;
6394;SDS011;3230;42.588;23.358;2022-09-12T15:20:09;8.40;;;5.20;;
6394;SDS011;3230;42.588;23.358;2022-09-12T15:22:35;6.00;;;4.90;;
6394;SDS011;3230;42.588;23.358;2022-09-12T15:25:02;11.80;;;8.80;;
6394;SDS011;3230;42.588;23.358;2022-09-12T15:27:29;9.83;;;5.50;;
6394;SDS011;3230;42.588;23.358;2022-09-12T15:29:54;6.30;;;4.93;;
6394;SDS011;3230;42.588;23.358;2022-09-12T15:32:24;6.00;;;5.10;;
6394;SDS011;3230;42.588;23.358;2022-09-12T15:34:50;7.30;;;5.10;;
6394;SDS011;3230;42.588;23.358;2022-09-12T15:37:18;7.17;;;5.70;;
6394;SDS011;3230;42.588;23.358;2022-09-12T15:39:45;6.03;;;5.10;;
6394;SDS011;3230;42.588;23.358;2022-09-12T15:42:12;6.73;;;5.57;;
6394;SDS011;3230;42.588;23.358;2022-09-12T15:44:39;6.20;;;5.20;;
6394;SDS011;3230;42.588;23.358;2022-09-12T15:47:05;7.23;;;5.00;;
6394;SDS011;3230;42.588;23.358;2022-09-12T15:49:31;6.47;;;5.30;;
6394;SDS011;3230;42.588;23.358;2022-09-12T15:51:56;6.20;;;5.20;;
6394;SDS011;3230;42.588;23.358;2022-09-12T15:54:23;6.00;;;4.47;;
6394;SDS011;3230;42.588;23.358;2022-09-12T15:56:48;7.47;;;5.50;;
6394;SDS011;3230;42.588;23.358;2022-09-12T15:59:13;6.10;;;5.03;;
6394;SDS011;3230;42.588;23.358;2022-09-12T16:01:39;7.40;;;4.77;;
6394;SDS011;3230;42.588;23.358;2022-09-12T16:04:13;6.30;;;4.83;;
6394;SDS011;3230;42.588;23.358;2022-09-12T16:06:44;5.90;;;4.70;;
6394;SDS011;3230;42.588;23.358;2022-09-12T16:09:10;5.70;;;4.70;;
6394;SDS011;3230;42.588;23.358;2022-09-12T16:11:35;5.17;;;4.67;;
6394;SDS011;3230;42.588;23.358;2022-09-12T16:14:02;5.67;;;4.63;;
6394;SDS011;3230;42.588;23.358;2022-09-12T16:16:29;5.20;;;4.50;;
6394;SDS011;3230;42.588;23.358;2022-09-12T16:18:55;7.20;;;5.03;;
6394;SDS011;3230;42.588;23.358;2022-09-12T16:21:21;6.07;;;5.33;;
6394;SDS011;3230;42.588;23.358;2022-09-12T16:23:46;5.90;;;5.23;;
6394;SDS011;3230;42.588;23.358;2022-09-12T16:26:12;7.20;;;5.10;;
6394;SDS011;3230;42.588;23.358;2022-09-12T16:28:38;5.57;;;4.97;;
6394;SDS011;3230;42.588;23.358;2022-09-12T16:31:05;4.90;;;4.03;;
6394;SDS011;3230;42.588;23.358;2022-09-12T16:33:32;6.63;;;5.50;;
6394;SDS011;3230;42.588;23.358;2022-09-12T16:36:05;7.27;;;4.77;;
6394;SDS011;3230;42.588;23.358;2022-09-12T16:38:33;5.10;;;4.13;;
6394;SDS011;3230;42.588;23.358;2022-09-12T16:41:04;5.03;;;4.50;;
6394;SDS011;3230;42.588;23.358;2022-09-12T16:43:31;5.27;;;4.60;;
6394;SDS011;3230;42.588;23.358;2022-09-12T16:46:05;4.70;;;4.13;;
6394;SDS011;3230;42.588;23.358;2022-09-12T16:48:33;6.80;;;4.63;;
6394;SDS011;3230;42.588;23.358;2022-09-12T16:50:59;6.53;;;4.20;;
6394;SDS011;3230;42.588;23.358;2022-09-12T16:53:29;5.87;;;4.50;;
6394;SDS011;3230;42.588;23.358;2022-09-12T16:55:59;4.73;;;4.23;;
6394;SDS011;3230;42.588;23.358;2022-09-12T16:58:25;5.00;;;4.50;;
6394;SDS011;3230;42.588;23.358;2022-09-12T17:01:07;5.40;;;4.63;;
6394;SDS011;3230;42.588;23.358;2022-09-12T17:03:34;7.07;;;4.80;;
6394;SDS011;3230;42.588;23.358;2022-09-12T17:06:07;9.63;;;5.00;;
6394;SDS011;3230;42.588;23.358;2022-09-12T17:08:37;6.30;;;4.80;;
6394;SDS011;3230;42.588;23.358;2022-09-12T17:11:05;9.33;;;6.00;;
6394;SDS011;3230;42.588;23.358;2022-09-12T17:13:33;7.10;;;5.20;;
6394;SDS011;3230;42.588;23.358;2022-09-12T17:15:59;9.53;;;5.13;;
6394;SDS011;3230;42.588;23.358;2022-09-12T17:18:24;6.40;;;5.07;;
6394;SDS011;3230;42.588;23.358;2022-09-12T17:20:50;8.13;;;5.93;;
6394;SDS011;3230;42.588;23.358;2022-09-12T17:23:16;6.70;;;5.53;;
6394;SDS011;3230;42.588;23.358;2022-09-12T17:25:45;9.40;;;5.40;;
6394;SDS011;3230;42.588;23.358;2022-09-12T17:28:11;6.37;;;5.33;;
6394;SDS011;3230;42.588;23.358;2022-09-12T17:30:37;5.97;;;5.27;;
6394;SDS011;3230;42.588;23.358;2022-09-12T17:33:02;7.10;;;6.10;;
6394;SDS011;3230;42.588;23.358;2022-09-12T17:35:28;7.67;;;5.80;;
6394;SDS011;3230;42.588;23.358;2022-09-12T17:37:53;13.87;;;6.60;;
6394;SDS011;3230;42.588;23.358;2022-09-12T17:40:20;8.10;;;5.70;;
6394;SDS011;3230;42.588;23.358;2022-09-12T17:42:45;8.37;;;6.70;;
6394;SDS011;3230;42.588;23.358;2022-09-12T17:45:11;10.47;;;6.80;;
6394;SDS011;3230;42.588;23.358;2022-09-12T17:47:37;8.57;;;5.80;;
6394;SDS011;3230;42.588;23.358;2022-09-12T17:50:03;8.40;;;6.10;;
6394;SDS011;3230;42.588;23.358;2022-09-12T17:52:29;6.27;;;5.30;;